createdAt,value
2022-08-03T00:00:26.961Z,56.91
2022-08-03T00:02:53.959Z,57.23
2022-08-03T00:05:20.890Z,57.44
2022-08-03T00:07:48.621Z,56.99
2022-08-03T00:10:17.266Z,57.02
2022-08-03T00:12:43.949Z,57.55
2022-08-03T00:15:11.343Z,57.34
2022-08-03T00:17:53.674Z,58.89
2022-08-03T00:20:24.026Z,60.31
2022-08-03T00:22:51.495Z,58.99
2022-08-03T00:25:19.268Z,58.19
2022-08-03T00:27:45.852Z,57.53
2022-08-03T00:30:15.343Z,58.95
2022-08-03T00:32:45.165Z,59.52
2022-08-03T00:35:28.041Z,58.29
2022-08-03T00:37:59.986Z,57.11
2022-08-03T00:40:26.638Z,57.97
2022-08-03T00:42:54.556Z,59.35
2022-08-03T00:45:26.474Z,58.84
2022-08-03T00:47:53.580Z,58.17
2022-08-03T00:50:22.876Z,57.16
2022-08-03T00:52:51.724Z,56.48
2022-08-03T00:55:18.651Z,56.63
2022-08-03T00:57:46.291Z,56.74
2022-08-03T01:00:17.403Z,57.58
2022-08-03T01:02:44.075Z,58.47
2022-08-03T01:05:11.109Z,57.58
2022-08-03T01:07:58.842Z,56.41
2022-08-03T01:11:00.578Z,57.40
2022-08-03T01:14:01.243Z,59.24
2022-08-03T01:16:41.384Z,59.68
2022-08-03T01:19:41.141Z,59.00
2022-08-03T01:22:32.091Z,57.80
2022-08-03T01:25:11.650Z,57.52
2022-08-03T01:27:51.497Z,57.63
2022-08-03T01:30:19.018Z,58.62
2022-08-03T01:33:01.082Z,59.78
2022-08-03T01:35:52.491Z,59.99
2022-08-03T01:38:26.187Z,59.15
2022-08-03T01:40:54.788Z,58.20
2022-08-03T01:44:28.487Z,58.51
2022-08-03T01:46:16.004Z,59.65
2022-08-03T01:48:44.868Z,60.16
2022-08-03T01:51:13.478Z,60.71
2022-08-03T01:53:44.196Z,61.00
2022-08-03T01:56:13.368Z,60.44
2022-08-03T01:58:41.730Z,60.05
2022-08-03T02:01:10.429Z,60.91
2022-08-03T02:03:59.982Z,61.96
2022-08-03T02:07:00.365Z,62.61
2022-08-03T02:09:20.035Z,61.31
2022-08-03T02:11:47.431Z,61.04
2022-08-03T02:14:15.837Z,61.38
2022-08-03T02:16:45.434Z,60.99
2022-08-03T02:19:13.674Z,62.14
2022-08-03T02:21:55.849Z,61.04
2022-08-03T02:24:27.522Z,59.94
2022-08-03T02:26:56.254Z,60.33
2022-08-03T02:29:38.629Z,60.99
2022-08-03T02:32:12.858Z,60.81
2022-08-03T02:34:42.094Z,60.17
2022-08-03T02:37:12.028Z,59.96
2022-08-03T02:39:41.859Z,61.48
2022-08-03T02:42:12.241Z,62.85
2022-08-03T02:44:43.773Z,60.96
2022-08-03T02:47:11.739Z,60.03
2022-08-03T02:49:50.701Z,60.12
2022-08-03T02:52:21.626Z,60.65
2022-08-03T02:54:51.130Z,59.01
2022-08-03T02:57:20.021Z,58.76
2022-08-03T02:59:47.594Z,59.39
2022-08-03T03:02:16.588Z,60.58
2022-08-03T03:04:53.748Z,61.21
2022-08-03T03:07:35.362Z,60.11
2022-08-03T03:10:18.662Z,58.86
2022-08-03T03:12:46.813Z,59.79
2022-08-03T03:15:13.400Z,59.67
2022-08-03T03:17:42.546Z,59.35
2022-08-03T03:20:09.696Z,58.74
2022-08-03T03:22:36.518Z,60.51
2022-08-03T03:25:03.493Z,60.81
2022-08-03T03:27:30.691Z,62.54
2022-08-03T03:29:59.277Z,62.21
2022-08-03T03:32:29.802Z,62.26
2022-08-03T03:34:57.038Z,61.69
2022-08-03T03:37:23.611Z,61.27
2022-08-03T03:39:50.447Z,61.85
2022-08-03T03:42:17.416Z,61.82
2022-08-03T03:44:44.237Z,61.75
2022-08-03T03:47:10.930Z,62.38
2022-08-03T03:49:41.249Z,61.92
2022-08-03T03:52:07.813Z,62.70
2022-08-03T03:54:45.818Z,62.15
2022-08-03T03:57:12.956Z,62.73
2022-08-03T03:59:43.953Z,63.62
2022-08-03T04:02:12.122Z,63.53
2022-08-03T04:04:57.566Z,63.27
2022-08-03T04:07:44.694Z,62.28
2022-08-03T04:10:36.895Z,60.92
2022-08-03T04:13:10.802Z,61.96
2022-08-03T04:15:39.813Z,63.75
2022-08-03T04:18:09.710Z,63.77
2022-08-03T04:20:38.821Z,63.22
2022-08-03T04:23:15.521Z,62.80
2022-08-03T04:25:43.979Z,63.79
2022-08-03T04:28:30.855Z,63.50
2022-08-03T04:31:01.293Z,64.17
2022-08-03T04:33:31.321Z,64.28
2022-08-03T04:36:03.175Z,64.88
2022-08-03T04:38:38.650Z,64.70
2022-08-03T04:41:05.699Z,63.88
2022-08-03T04:43:34.195Z,63.46
2022-08-03T04:46:02.556Z,63.33
2022-08-03T04:48:29.326Z,64.47
2022-08-03T04:50:56.399Z,63.89
2022-08-03T04:53:23.253Z,62.19
2022-08-03T04:55:49.963Z,62.15
2022-08-03T04:58:16.478Z,63.55
2022-08-03T05:00:43.607Z,64.75
2022-08-03T05:03:20.285Z,64.81
2022-08-03T05:06:01.715Z,63.02
2022-08-03T05:08:29.259Z,63.19
2022-08-03T05:10:58.903Z,68.38
2022-08-03T05:13:26.052Z,66.88
2022-08-03T05:15:52.703Z,67.54
2022-08-03T05:18:19.379Z,66.88
2022-08-03T05:20:45.937Z,64.88
2022-08-03T05:23:12.645Z,63.81
2022-08-03T05:25:39.421Z,65.73
2022-08-03T05:28:06.043Z,65.72
2022-08-03T05:30:34.107Z,64.47
2022-08-03T05:33:02.752Z,64.93
2022-08-03T05:35:57.265Z,65.37
2022-08-03T05:38:24.079Z,65.48
2022-08-03T05:40:56.998Z,63.40
2022-08-03T05:43:24.987Z,61.62
2022-08-03T05:46:11.767Z,62.66
2022-08-03T05:48:38.368Z,64.38
2022-08-03T05:51:11.094Z,63.12
2022-08-03T05:53:38.595Z,65.48
2022-08-03T05:56:13.617Z,64.77
2022-08-03T05:58:44.097Z,66.10
2022-08-03T06:01:11.035Z,65.45
2022-08-03T06:03:37.689Z,64.96
2022-08-03T06:06:04.602Z,63.18
2022-08-03T06:08:31.239Z,63.70
2022-08-03T06:10:57.796Z,63.61
2022-08-03T06:13:24.481Z,63.05
2022-08-03T06:15:51.031Z,63.22
2022-08-03T06:18:17.812Z,61.93
2022-08-03T06:20:44.466Z,61.36
2022-08-03T06:23:16.178Z,61.26
2022-08-03T06:25:44.790Z,61.85
2022-08-03T06:31:01.275Z,60.44
2022-08-03T06:34:30.907Z,61.16
2022-08-03T06:36:15.259Z,60.55
2022-08-03T06:38:41.890Z,60.26
2022-08-03T06:41:08.694Z,59.97
2022-08-03T06:43:37.804Z,60.96
2022-08-03T06:46:05.526Z,60.66
2022-08-03T06:48:32.626Z,59.92
2022-08-03T06:50:59.538Z,59.42
2022-08-03T06:53:26.298Z,59.20
2022-08-03T06:55:55.048Z,58.13
2022-08-03T06:58:22.163Z,58.03
2022-08-03T07:00:48.729Z,57.85
2022-08-03T07:03:15.571Z,57.52
2022-08-03T07:05:43.489Z,57.41
2022-08-03T07:08:10.448Z,56.07
2022-08-03T07:10:37.254Z,55.96
2022-08-03T07:13:04.837Z,55.04
2022-08-03T07:15:54.327Z,55.86
2022-08-03T07:18:24.592Z,54.94
2022-08-03T07:20:58.061Z,54.93
2022-08-03T07:23:25.683Z,55.27
2022-08-03T07:25:52.614Z,55.33
2022-08-03T07:28:19.874Z,55.71
2022-08-03T07:30:46.615Z,55.26
2022-08-03T07:33:13.494Z,55.80
2022-08-03T07:35:40.052Z,55.71
2022-08-03T07:38:06.777Z,55.59
2022-08-03T07:40:33.444Z,54.31
2022-08-03T07:43:00.168Z,54.19
2022-08-03T07:45:27.026Z,54.70
2022-08-03T07:47:54.308Z,55.14
2022-08-03T07:50:21.860Z,54.19
2022-08-03T07:52:49.552Z,54.34
2022-08-03T07:55:18.256Z,54.14
2022-08-03T07:57:45.015Z,53.85
2022-08-03T08:00:19.321Z,53.64
2022-08-03T08:02:46.287Z,53.63
2022-08-03T08:05:13.199Z,53.57
2022-08-03T08:07:40.308Z,53.18
2022-08-03T08:10:09.897Z,52.98
2022-08-03T08:12:38.590Z,53.01
2022-08-03T08:15:06.050Z,52.50
2022-08-03T08:17:42.051Z,52.02
2022-08-03T08:20:09.813Z,51.87
2022-08-03T08:22:36.360Z,53.33
2022-08-03T08:25:04.403Z,52.42
2022-08-03T08:28:30.081Z,51.56
2022-08-03T08:30:20.164Z,50.37
2022-08-03T08:32:47.401Z,51.06
2022-08-03T08:35:14.091Z,49.68
2022-08-03T08:37:41.271Z,50.14
2022-08-03T08:40:09.146Z,50.70
2022-08-03T08:42:40.334Z,50.40
2022-08-03T08:45:12.042Z,51.91
2022-08-03T08:47:51.788Z,50.99
2022-08-03T08:50:22.761Z,51.05
2022-08-03T08:52:56.005Z,50.99
2022-08-03T08:55:24.111Z,51.11
2022-08-03T08:58:01.707Z,50.67
2022-08-03T09:00:30.827Z,50.08
2022-08-03T09:02:57.355Z,50.76
2022-08-03T09:05:41.387Z,49.41
2022-08-03T09:08:11.030Z,46.59
2022-08-03T09:10:37.602Z,46.56
2022-08-03T09:13:04.261Z,46.52
2022-08-03T09:15:33.203Z,46.04
2022-08-03T09:18:02.574Z,46.44
2022-08-03T09:20:31.452Z,44.01
2022-08-03T09:23:00.573Z,44.90
2022-08-03T09:25:37.110Z,46.75
2022-08-03T09:28:33.726Z,45.15
2022-08-03T09:31:01.950Z,46.12
2022-08-03T09:33:36.025Z,45.48
2022-08-03T09:36:03.170Z,45.63
2022-08-03T09:38:30.086Z,45.48
2022-08-03T09:41:00.290Z,43.11
2022-08-03T09:43:27.966Z,43.56
2022-08-03T09:46:04.089Z,45.03
2022-08-03T09:48:31.760Z,45.01
2022-08-03T09:51:14.243Z,44.20
2022-08-03T09:53:58.522Z,44.75
2022-08-03T09:56:41.504Z,44.03
2022-08-03T09:59:08.902Z,43.81
2022-08-03T10:01:36.389Z,43.41
2022-08-03T10:04:05.146Z,42.40
2022-08-03T10:06:32.637Z,43.11
2022-08-03T10:09:09.461Z,42.38
2022-08-03T10:11:41.208Z,43.53
2022-08-03T10:14:11.437Z,43.32
2022-08-03T10:16:40.251Z,42.46
2022-08-03T10:19:08.356Z,43.10
2022-08-03T10:21:39.315Z,40.55
2022-08-03T10:24:08.826Z,42.44
2022-08-03T10:26:37.961Z,40.12
2022-08-03T10:29:12.837Z,42.38
2022-08-03T10:31:57.890Z,42.04
2022-08-03T10:34:29.161Z,41.71
2022-08-03T10:36:58.771Z,43.10
2022-08-03T10:39:29.824Z,43.14
2022-08-03T10:41:58.769Z,41.98
2022-08-03T10:44:33.379Z,42.20
2022-08-03T10:47:01.062Z,42.24
2022-08-03T10:49:34.846Z,41.24
2022-08-03T10:52:12.875Z,41.17
2022-08-03T10:55:07.728Z,42.74
2022-08-03T10:57:43.835Z,42.30
2022-08-03T11:00:15.451Z,42.04
2022-08-03T11:03:07.013Z,41.00
2022-08-03T11:05:45.482Z,42.42
2022-08-03T11:08:28.733Z,41.25
2022-08-03T11:10:57.971Z,40.60
2022-08-03T11:13:26.139Z,41.65
2022-08-03T11:16:01.602Z,41.26
2022-08-03T11:18:30.634Z,40.77
2022-08-03T11:20:59.944Z,42.42
2022-08-03T11:24:04.810Z,41.47
2022-08-03T11:26:33.752Z,41.04
2022-08-03T11:29:29.352Z,41.69
2022-08-03T11:31:56.243Z,41.71
2022-08-03T11:34:24.410Z,41.81
2022-08-03T11:37:21.443Z,42.94
2022-08-03T11:39:50.742Z,40.23
2022-08-03T11:42:23.806Z,39.04
2022-08-03T11:44:51.717Z,39.82
2022-08-03T11:47:20.796Z,39.27
2022-08-03T11:49:49.039Z,39.69
2022-08-03T11:52:17.676Z,40.67
2022-08-03T11:54:44.524Z,39.84
2022-08-03T11:57:11.328Z,39.27
2022-08-03T11:59:38.763Z,38.05
2022-08-03T12:02:14.702Z,38.98
2022-08-03T12:04:58.327Z,39.24
2022-08-03T12:08:02.720Z,38.47
2022-08-03T12:10:15.123Z,38.42
2022-08-03T12:12:46.338Z,38.27
2022-08-03T12:15:13.446Z,38.96
2022-08-03T12:17:41.530Z,38.56
2022-08-03T12:20:10.327Z,38.96
2022-08-03T12:22:40.731Z,38.88
2022-08-03T12:25:09.012Z,39.32
2022-08-03T12:27:36.384Z,40.13
2022-08-03T12:30:04.002Z,39.31
2022-08-03T12:32:31.167Z,38.98
2022-08-03T12:35:04.404Z,37.90
2022-08-03T12:37:32.050Z,38.21
2022-08-03T12:40:09.999Z,37.29
2022-08-03T12:42:38.942Z,36.17
2022-08-03T12:45:26.427Z,36.45
2022-08-03T12:47:58.022Z,37.96
2022-08-03T12:50:33.853Z,38.05
2022-08-03T12:53:02.521Z,37.98
2022-08-03T12:55:56.551Z,36.55
2022-08-03T12:58:33.803Z,35.84
2022-08-03T13:01:01.670Z,36.36
2022-08-03T13:03:42.202Z,36.70
2022-08-03T13:06:18.114Z,36.73
2022-08-03T13:08:45.967Z,35.56
2022-08-03T13:11:55.961Z,36.14
2022-08-03T13:14:16.838Z,35.22
2022-08-03T13:16:47.559Z,35.83
2022-08-03T13:19:15.589Z,35.90
2022-08-03T13:22:01.602Z,35.88
2022-08-03T13:24:31.398Z,36.84
2022-08-03T13:26:58.595Z,36.78
2022-08-03T13:29:25.142Z,36.06
2022-08-03T13:31:51.882Z,35.52
2022-08-03T13:34:23.012Z,37.26
2022-08-03T13:39:57.794Z,34.86
2022-08-03T13:42:30.592Z,33.81
2022-08-03T13:44:57.578Z,34.38
2022-08-03T13:47:24.087Z,34.92
2022-08-03T13:49:54.217Z,36.75
2022-08-03T13:52:28.155Z,35.75
2022-08-03T13:54:54.798Z,35.04
2022-08-03T13:58:03.078Z,34.90
2022-08-03T14:00:09.044Z,34.26
2022-08-03T14:02:35.728Z,34.58
2022-08-03T14:05:02.471Z,33.92
2022-08-03T14:07:29.029Z,34.48
2022-08-03T14:09:55.761Z,35.19
2022-08-03T14:12:22.579Z,32.31
2022-08-03T14:14:49.282Z,34.32
2022-08-03T14:17:16.389Z,33.25
2022-08-03T14:19:53.240Z,33.53
2022-08-03T14:22:21.345Z,33.54
2022-08-03T14:24:48.034Z,33.08
2022-08-03T14:27:16.419Z,34.90
2022-08-03T14:29:43.021Z,35.70
2022-08-03T14:32:13.252Z,34.11
2022-08-03T14:34:40.847Z,35.76
2022-08-03T14:37:07.772Z,34.92
2022-08-03T14:42:21.616Z,32.90
2022-08-03T14:44:48.305Z,34.24
2022-08-03T14:47:15.038Z,34.99
2022-08-03T14:50:38.327Z,34.46
2022-08-03T14:52:29.004Z,35.08
2022-08-03T14:54:55.580Z,33.83
2022-08-03T14:57:22.471Z,33.74
2022-08-03T14:59:55.903Z,33.86
2022-08-03T15:02:24.434Z,33.08
2022-08-03T15:04:51.649Z,33.41
2022-08-03T15:07:24.413Z,32.47
2022-08-03T15:09:54.489Z,32.89
2022-08-03T15:12:21.476Z,32.63
2022-08-03T15:14:49.152Z,32.34
2022-08-03T15:17:21.418Z,32.75
2022-08-03T15:20:02.236Z,32.26
2022-08-03T15:22:35.405Z,31.77
2022-08-03T15:26:04.210Z,32.99
2022-08-03T15:28:02.763Z,33.32
2022-08-03T15:30:31.334Z,32.10
2022-08-03T15:32:57.900Z,34.99
2022-08-03T15:35:24.723Z,33.89
2022-08-03T15:37:51.439Z,32.72
2022-08-03T15:40:18.089Z,33.45
2022-08-03T15:42:47.748Z,34.40
2022-08-03T15:45:14.417Z,34.60
2022-08-03T15:47:44.656Z,35.39
2022-08-03T15:50:11.995Z,36.05
2022-08-03T15:52:38.628Z,33.13
2022-08-03T15:55:05.634Z,33.86
2022-08-03T15:57:32.385Z,34.22
2022-08-03T15:59:58.977Z,33.49
2022-08-03T16:02:34.401Z,33.22
2022-08-03T16:05:01.553Z,33.44
2022-08-03T16:08:03.099Z,33.86
2022-08-03T16:10:32.192Z,33.14
2022-08-03T16:13:00.001Z,32.89
2022-08-03T16:15:27.980Z,34.08
2022-08-03T16:17:54.816Z,32.67
2022-08-03T16:20:31.234Z,32.98
2022-08-03T16:23:08.509Z,33.96
2022-08-03T16:25:40.593Z,32.57
2022-08-03T16:28:13.453Z,32.96
2022-08-03T16:30:43.503Z,32.60
2022-08-03T16:33:11.475Z,33.26
2022-08-03T16:35:43.933Z,33.66
2022-08-03T16:38:13.073Z,33.71
2022-08-03T16:40:42.560Z,33.68
2022-08-03T16:43:18.290Z,34.03
2022-08-03T16:45:49.235Z,32.95
2022-08-03T16:48:16.953Z,33.06
2022-08-03T16:50:44.289Z,33.46
2022-08-03T16:53:15.648Z,33.23
2022-08-03T16:55:53.817Z,33.71
2022-08-03T16:58:34.278Z,34.06
2022-08-03T17:01:21.472Z,33.74
2022-08-03T17:04:02.141Z,33.44
2022-08-03T17:06:37.082Z,33.69
2022-08-03T17:09:10.257Z,34.02
2022-08-03T17:11:44.271Z,33.81
2022-08-03T17:14:16.089Z,34.28
2022-08-03T17:16:52.750Z,33.76
2022-08-03T17:19:23.168Z,33.93
2022-08-03T17:21:57.288Z,34.43
2022-08-03T17:24:31.166Z,34.69
2022-08-03T17:27:01.168Z,34.36
2022-08-03T17:29:29.951Z,35.22
2022-08-03T17:31:56.832Z,35.99
2022-08-03T17:34:26.566Z,36.88
2022-08-03T17:37:27.360Z,37.91
2022-08-03T17:39:59.833Z,37.02
2022-08-03T17:42:31.321Z,37.98
2022-08-03T17:45:01.682Z,38.51
2022-08-03T17:47:29.129Z,39.20
2022-08-03T17:50:23.929Z,39.61
2022-08-03T17:53:07.414Z,40.02
2022-08-03T17:58:54.692Z,41.57
2022-08-03T18:02:00.219Z,41.86
2022-08-03T18:04:38.155Z,42.19
2022-08-03T18:07:12.544Z,42.60
2022-08-03T18:10:06.159Z,42.35
2022-08-03T18:12:43.453Z,42.75
2022-08-03T18:15:22.997Z,43.43
2022-08-03T18:17:55.858Z,44.40
2022-08-03T18:20:34.156Z,44.33
2022-08-03T18:23:08.824Z,44.17
2022-08-03T18:25:45.227Z,44.12
2022-08-03T18:28:18.745Z,44.43
2022-08-03T18:30:53.894Z,44.97
2022-08-03T18:34:19.775Z,44.05
2022-08-03T18:36:17.421Z,44.47
2022-08-03T18:38:51.656Z,44.65
2022-08-03T18:41:32.979Z,44.46
2022-08-03T18:44:08.004Z,45.36
2022-08-03T18:46:54.512Z,44.80
2022-08-03T18:49:29.061Z,44.66
2022-08-03T18:52:15.808Z,45.08
2022-08-03T18:55:19.815Z,45.67
2022-08-03T18:58:15.845Z,45.28
2022-08-03T19:01:06.171Z,45.47
2022-08-03T19:03:57.047Z,45.77
2022-08-03T19:06:28.773Z,45.60
2022-08-03T19:09:12.775Z,46.12
2022-08-03T19:12:26.015Z,46.16
2022-08-03T19:14:44.435Z,44.79
2022-08-03T19:17:14.066Z,45.30
2022-08-03T19:19:50.629Z,45.62
2022-08-03T19:22:22.362Z,45.99
2022-08-03T19:24:52.103Z,46.84
2022-08-03T19:27:21.493Z,47.38
2022-08-03T19:29:58.411Z,48.04
2022-08-03T19:32:29.982Z,47.18
2022-08-03T19:34:59.641Z,47.46
2022-08-03T19:37:38.596Z,46.83
2022-08-03T19:40:10.797Z,47.04
2022-08-03T19:42:44.400Z,47.46
2022-08-03T19:45:14.846Z,47.56
2022-08-03T19:47:58.838Z,48.01
2022-08-03T19:50:26.541Z,48.56
2022-08-03T19:52:58.357Z,48.65
2022-08-03T19:55:28.652Z,48.58
2022-08-03T19:58:01.177Z,47.84
2022-08-03T20:00:32.718Z,47.32
2022-08-03T20:03:23.408Z,47.49
2022-08-03T20:05:54.235Z,48.51
2022-08-03T20:08:22.035Z,48.18
2022-08-03T20:10:49.305Z,47.62
2022-08-03T20:13:19.374Z,47.10
2022-08-03T20:15:46.576Z,46.68
2022-08-03T20:18:16.744Z,47.47
2022-08-03T20:20:48.203Z,48.38
2022-08-03T20:23:19.573Z,49.26
2022-08-03T20:25:58.288Z,49.12
2022-08-03T20:28:50.562Z,49.28
2022-08-03T20:31:21.637Z,49.82
2022-08-03T20:33:51.325Z,49.15
2022-08-03T20:36:18.926Z,49.58
2022-08-03T20:38:47.824Z,48.77
2022-08-03T20:41:18.625Z,47.89
2022-08-03T20:43:49.318Z,47.13
2022-08-03T20:46:32.789Z,48.33
2022-08-03T20:49:06.068Z,49.04
2022-08-03T20:51:52.821Z,48.22
2022-08-03T20:54:31.142Z,48.25
2022-08-03T20:57:00.734Z,48.00
2022-08-03T20:59:47.390Z,49.12
2022-08-03T21:02:28.989Z,47.98
2022-08-03T21:04:59.267Z,49.51
2022-08-03T21:08:04.203Z,50.33
2022-08-03T21:10:21.235Z,50.78
2022-08-03T21:13:04.918Z,40.62
2022-08-03T21:13:15.007Z,50.59
2022-08-03T21:16:06.516Z,50.47
2022-08-03T21:18:38.485Z,51.31
2022-08-03T21:21:06.944Z,51.14
2022-08-03T21:23:47.614Z,50.56
2022-08-03T21:26:17.350Z,49.28
2022-08-03T21:28:46.404Z,50.64
2022-08-03T21:31:14.494Z,51.28
2022-08-03T21:33:54.443Z,51.22
2022-08-03T21:36:21.033Z,52.84
2022-08-03T21:38:56.530Z,53.09
2022-08-03T21:41:27.932Z,51.59
2022-08-03T21:43:54.606Z,52.26
2022-08-03T21:46:22.768Z,50.83
2022-08-03T21:48:55.184Z,50.24
2022-08-03T21:51:25.311Z,51.40
2022-08-03T21:54:03.020Z,51.65
2022-08-03T21:56:42.071Z,50.29
2022-08-03T21:59:16.289Z,50.60
2022-08-03T22:01:46.391Z,49.43
2022-08-03T22:04:42.679Z,50.30
2022-08-03T22:07:06.928Z,51.77
2022-08-03T22:09:35.295Z,51.51
2022-08-03T22:12:02.054Z,50.96
2022-08-03T22:14:29.838Z,50.82
2022-08-03T22:16:56.677Z,51.23
2022-08-03T22:19:23.323Z,51.45
2022-08-03T22:21:50.545Z,51.97
2022-08-03T22:24:23.963Z,51.94
2022-08-03T22:27:10.084Z,51.37
2022-08-03T22:29:39.735Z,51.60
2022-08-03T22:32:06.959Z,52.79
2022-08-03T22:34:34.283Z,52.50
2022-08-03T22:37:02.819Z,53.24
2022-08-03T22:39:30.295Z,52.57
2022-08-03T22:41:58.954Z,51.63
2022-08-03T22:44:27.510Z,52.67
2022-08-03T22:46:55.440Z,53.03
2022-08-03T22:49:22.980Z,53.66
2022-08-03T22:51:52.101Z,52.55
2022-08-03T22:54:18.818Z,52.14
2022-08-03T22:56:49.851Z,52.77
2022-08-03T22:59:40.599Z,53.01
2022-08-03T23:02:20.869Z,52.55
2022-08-03T23:04:55.065Z,53.67
2022-08-03T23:07:32.532Z,53.24
2022-08-03T23:10:02.107Z,52.92
2022-08-03T23:12:30.463Z,52.37
2022-08-03T23:15:02.210Z,51.24
2022-08-03T23:17:31.412Z,51.15
2022-08-03T23:20:07.336Z,51.32
2022-08-03T23:22:35.359Z,51.47
2022-08-03T23:25:04.608Z,51.67
2022-08-03T23:27:32.664Z,52.64
2022-08-03T23:30:01.052Z,51.70
2022-08-03T23:32:29.866Z,53.03
2022-08-03T23:35:21.060Z,52.20
2022-08-03T23:38:04.450Z,52.12
2022-08-03T23:40:36.765Z,53.36
2022-08-03T23:43:04.356Z,52.54
2022-08-03T23:45:34.809Z,51.35
2022-08-03T23:48:01.539Z,53.23
2022-08-03T23:50:35.735Z,54.23
2022-08-03T23:53:12.041Z,54.37
2022-08-03T23:56:13.237Z,53.58
2022-08-03T23:58:40.033Z,55.27
